sensor_id;sensor_type;location;lat;lon;timestamp;P1;durP1;ratioP1;P2;durP2;ratioP2
43996;SDS011;34318;45.818;15.964;2023-09-18T00:00:27;4.07;;;3.20;;
43996;SDS011;34318;45.818;15.964;2023-09-18T00:02:54;3.95;;;3.03;;
43996;SDS011;34318;45.818;15.964;2023-09-18T00:05:21;4.82;;;3.72;;
43996;SDS011;34318;45.818;15.964;2023-09-18T00:07:49;3.80;;;3.10;;
43996;SDS011;34318;45.818;15.964;2023-09-18T00:10:16;3.53;;;3.22;;
43996;SDS011;34318;45.818;15.964;2023-09-18T00:12:43;3.47;;;3.10;;
43996;SDS011;34318;45.818;15.964;2023-09-18T00:15:10;6.60;;;3.80;;
43996;SDS011;34318;45.818;15.964;2023-09-18T00:17:38;3.90;;;3.53;;
43996;SDS011;34318;45.818;15.964;2023-09-18T00:20:05;3.75;;;3.45;;
43996;SDS011;34318;45.818;15.964;2023-09-18T00:22:33;4.20;;;3.30;;
43996;SDS011;34318;45.818;15.964;2023-09-18T00:25:01;3.45;;;3.15;;
43996;SDS011;34318;45.818;15.964;2023-09-18T00:27:28;4.68;;;3.58;;
43996;SDS011;34318;45.818;15.964;2023-09-18T00:29:56;3.90;;;3.60;;
43996;SDS011;34318;45.818;15.964;2023-09-18T00:32:23;4.63;;;3.70;;
43996;SDS011;34318;45.818;15.964;2023-09-18T00:34:50;5.35;;;3.88;;
43996;SDS011;34318;45.818;15.964;2023-09-18T00:37:18;4.00;;;3.60;;
43996;SDS011;34318;45.818;15.964;2023-09-18T00:39:45;4.38;;;3.50;;
43996;SDS011;34318;45.818;15.964;2023-09-18T00:42:12;4.20;;;3.80;;
43996;SDS011;34318;45.818;15.964;2023-09-18T00:44:40;5.45;;;3.47;;
43996;SDS011;34318;45.818;15.964;2023-09-18T00:47:08;5.72;;;4.07;;
43996;SDS011;34318;45.818;15.964;2023-09-18T00:49:36;5.38;;;3.70;;
43996;SDS011;34318;45.818;15.964;2023-09-18T00:52:04;4.63;;;3.70;;
43996;SDS011;34318;45.818;15.964;2023-09-18T00:54:33;4.20;;;3.42;;
43996;SDS011;34318;45.818;15.964;2023-09-18T00:57:01;5.43;;;4.80;;
43996;SDS011;34318;45.818;15.964;2023-09-18T00:59:29;7.30;;;3.53;;
43996;SDS011;34318;45.818;15.964;2023-09-18T01:01:57;4.93;;;3.80;;
43996;SDS011;34318;45.818;15.964;2023-09-18T01:04:24;5.57;;;3.65;;
43996;SDS011;34318;45.818;15.964;2023-09-18T01:06:52;3.83;;;3.53;;
43996;SDS011;34318;45.818;15.964;2023-09-18T01:09:22;3.65;;;3.35;;
43996;SDS011;34318;45.818;15.964;2023-09-18T01:14:44;3.88;;;3.58;;
43996;SDS011;34318;45.818;15.964;2023-09-18T01:17:12;6.60;;;3.50;;
43996;SDS011;34318;45.818;15.964;2023-09-18T01:19:45;5.38;;;3.70;;
43996;SDS011;34318;45.818;15.964;2023-09-18T01:22:14;6.20;;;3.70;;
43996;SDS011;34318;45.818;15.964;2023-09-18T01:24:41;4.05;;;3.55;;
43996;SDS011;34318;45.818;15.964;2023-09-18T01:27:09;5.50;;;3.97;;
43996;SDS011;34318;45.818;15.964;2023-09-18T01:29:39;4.32;;;3.90;;
43996;SDS011;34318;45.818;15.964;2023-09-18T01:32:06;5.22;;;4.00;;
43996;SDS011;34318;45.818;15.964;2023-09-18T01:34:37;5.80;;;3.60;;
43996;SDS011;34318;45.818;15.964;2023-09-18T01:37:09;4.18;;;3.70;;
43996;SDS011;34318;45.818;15.964;2023-09-18T01:39:36;6.78;;;3.95;;
43996;SDS011;34318;45.818;15.964;2023-09-18T01:42:05;4.05;;;3.30;;
43996;SDS011;34318;45.818;15.964;2023-09-18T01:44:33;3.80;;;3.50;;
43996;SDS011;34318;45.818;15.964;2023-09-18T01:47:04;4.20;;;3.80;;
43996;SDS011;34318;45.818;15.964;2023-09-18T01:49:35;5.20;;;4.00;;
43996;SDS011;34318;45.818;15.964;2023-09-18T01:52:03;3.80;;;3.40;;
43996;SDS011;34318;45.818;15.964;2023-09-18T01:54:31;3.88;;;3.53;;
43996;SDS011;34318;45.818;15.964;2023-09-18T01:56:58;5.30;;;3.85;;
43996;SDS011;34318;45.818;15.964;2023-09-18T01:59:26;4.18;;;3.78;;
43996;SDS011;34318;45.818;15.964;2023-09-18T02:01:54;4.13;;;3.70;;
43996;SDS011;34318;45.818;15.964;2023-09-18T02:04:22;4.10;;;3.72;;
43996;SDS011;34318;45.818;15.964;2023-09-18T02:07:10;4.15;;;3.63;;
43996;SDS011;34318;45.818;15.964;2023-09-18T02:09:37;6.05;;;3.67;;
43996;SDS011;34318;45.818;15.964;2023-09-18T02:12:04;4.35;;;3.50;;
43996;SDS011;34318;45.818;15.964;2023-09-18T02:14:32;6.13;;;3.83;;
43996;SDS011;34318;45.818;15.964;2023-09-18T02:17:00;4.75;;;3.67;;
43996;SDS011;34318;45.818;15.964;2023-09-18T02:19:27;4.32;;;3.67;;
43996;SDS011;34318;45.818;15.964;2023-09-18T02:21:58;5.10;;;3.92;;
43996;SDS011;34318;45.818;15.964;2023-09-18T02:24:25;5.65;;;4.13;;
43996;SDS011;34318;45.818;15.964;2023-09-18T02:26:52;3.75;;;3.45;;
43996;SDS011;34318;45.818;15.964;2023-09-18T02:29:19;4.53;;;3.90;;
43996;SDS011;34318;45.818;15.964;2023-09-18T02:31:47;3.78;;;3.38;;
43996;SDS011;34318;45.818;15.964;2023-09-18T02:34:14;4.95;;;3.75;;
43996;SDS011;34318;45.818;15.964;2023-09-18T02:36:41;6.88;;;3.97;;
43996;SDS011;34318;45.818;15.964;2023-09-18T02:39:08;4.22;;;3.83;;
43996;SDS011;34318;45.818;15.964;2023-09-18T02:41:36;4.75;;;4.10;;
43996;SDS011;34318;45.818;15.964;2023-09-18T02:44:03;4.53;;;3.92;;
43996;SDS011;34318;45.818;15.964;2023-09-18T02:46:30;4.10;;;3.63;;
43996;SDS011;34318;45.818;15.964;2023-09-18T02:48:58;4.32;;;3.80;;
43996;SDS011;34318;45.818;15.964;2023-09-18T02:51:25;7.60;;;3.78;;
43996;SDS011;34318;45.818;15.964;2023-09-18T02:53:52;4.53;;;3.78;;
43996;SDS011;34318;45.818;15.964;2023-09-18T02:56:20;5.30;;;3.92;;
43996;SDS011;34318;45.818;15.964;2023-09-18T02:58:47;6.80;;;3.92;;
43996;SDS011;34318;45.818;15.964;2023-09-18T03:01:15;4.13;;;3.72;;
43996;SDS011;34318;45.818;15.964;2023-09-18T03:03:43;5.85;;;3.60;;
43996;SDS011;34318;45.818;15.964;2023-09-18T03:06:11;8.02;;;4.15;;
43996;SDS011;34318;45.818;15.964;2023-09-18T03:08:39;4.03;;;3.67;;
43996;SDS011;34318;45.818;15.964;2023-09-18T03:11:12;4.80;;;3.85;;
43996;SDS011;34318;45.818;15.964;2023-09-18T03:13:46;4.85;;;3.75;;
43996;SDS011;34318;45.818;15.964;2023-09-18T03:16:13;4.68;;;4.28;;
43996;SDS011;34318;45.818;15.964;2023-09-18T03:18:41;5.65;;;4.57;;
43996;SDS011;34318;45.818;15.964;2023-09-18T03:21:08;4.82;;;4.25;;
43996;SDS011;34318;45.818;15.964;2023-09-18T03:23:35;5.47;;;3.78;;
43996;SDS011;34318;45.818;15.964;2023-09-18T03:26:03;5.40;;;3.78;;
43996;SDS011;34318;45.818;15.964;2023-09-18T03:28:30;4.20;;;3.80;;
43996;SDS011;34318;45.818;15.964;2023-09-18T03:30:58;4.03;;;3.63;;
43996;SDS011;34318;45.818;15.964;2023-09-18T03:33:25;4.20;;;3.90;;
43996;SDS011;34318;45.818;15.964;2023-09-18T03:35:53;4.13;;;3.72;;
43996;SDS011;34318;45.818;15.964;2023-09-18T03:38:24;5.35;;;4.10;;
43996;SDS011;34318;45.818;15.964;2023-09-18T03:40:52;5.47;;;4.50;;
43996;SDS011;34318;45.818;15.964;2023-09-18T03:43:19;6.88;;;3.80;;
43996;SDS011;34318;45.818;15.964;2023-09-18T03:45:47;6.28;;;4.00;;
43996;SDS011;34318;45.818;15.964;2023-09-18T03:48:14;3.83;;;3.53;;
43996;SDS011;34318;45.818;15.964;2023-09-18T03:50:42;4.70;;;4.20;;
43996;SDS011;34318;45.818;15.964;2023-09-18T03:53:09;4.50;;;4.07;;
43996;SDS011;34318;45.818;15.964;2023-09-18T03:55:37;5.40;;;3.92;;
43996;SDS011;34318;45.818;15.964;2023-09-18T03:58:04;4.10;;;3.78;;
43996;SDS011;34318;45.818;15.964;2023-09-18T04:00:32;4.85;;;4.38;;
43996;SDS011;34318;45.818;15.964;2023-09-18T04:02:59;4.18;;;3.55;;
43996;SDS011;34318;45.818;15.964;2023-09-18T04:05:27;4.90;;;3.60;;
43996;SDS011;34318;45.818;15.964;2023-09-18T04:07:54;4.07;;;3.67;;
43996;SDS011;34318;45.818;15.964;2023-09-18T04:10:21;4.03;;;3.72;;
43996;SDS011;34318;45.818;15.964;2023-09-18T04:12:50;4.00;;;3.70;;
43996;SDS011;34318;45.818;15.964;2023-09-18T04:15:18;4.10;;;3.70;;
43996;SDS011;34318;45.818;15.964;2023-09-18T04:17:46;4.43;;;3.90;;
43996;SDS011;34318;45.818;15.964;2023-09-18T04:20:14;4.15;;;3.85;;
43996;SDS011;34318;45.818;15.964;2023-09-18T04:22:42;4.20;;;3.80;;
43996;SDS011;34318;45.818;15.964;2023-09-18T04:25:11;4.40;;;3.90;;
43996;SDS011;34318;45.818;15.964;2023-09-18T04:27:38;4.65;;;4.25;;
43996;SDS011;34318;45.818;15.964;2023-09-18T04:30:06;5.28;;;4.22;;
43996;SDS011;34318;45.818;15.964;2023-09-18T04:32:39;6.05;;;3.92;;
43996;SDS011;34318;45.818;15.964;2023-09-18T04:35:08;6.53;;;3.92;;
43996;SDS011;34318;45.818;15.964;2023-09-18T04:37:36;4.43;;;4.03;;
43996;SDS011;34318;45.818;15.964;2023-09-18T04:40:07;6.43;;;4.50;;
43996;SDS011;34318;45.818;15.964;2023-09-18T04:42:38;4.25;;;3.85;;
43996;SDS011;34318;45.818;15.964;2023-09-18T04:45:06;6.43;;;4.00;;
43996;SDS011;34318;45.818;15.964;2023-09-18T04:47:34;5.90;;;3.70;;
43996;SDS011;34318;45.818;15.964;2023-09-18T04:50:02;4.25;;;3.80;;
43996;SDS011;34318;45.818;15.964;2023-09-18T04:52:39;5.15;;;3.90;;
43996;SDS011;34318;45.818;15.964;2023-09-18T04:55:10;4.20;;;3.80;;
43996;SDS011;34318;45.818;15.964;2023-09-18T04:57:37;4.72;;;3.90;;
43996;SDS011;34318;45.818;15.964;2023-09-18T05:00:05;4.38;;;3.97;;
43996;SDS011;34318;45.818;15.964;2023-09-18T05:02:43;4.07;;;3.65;;
43996;SDS011;34318;45.818;15.964;2023-09-18T05:05:11;4.65;;;3.78;;
43996;SDS011;34318;45.818;15.964;2023-09-18T05:07:40;6.28;;;4.35;;
43996;SDS011;34318;45.818;15.964;2023-09-18T05:10:08;3.80;;;3.50;;
43996;SDS011;34318;45.818;15.964;2023-09-18T05:12:37;4.32;;;3.92;;
43996;SDS011;34318;45.818;15.964;2023-09-18T05:15:04;4.60;;;4.20;;
43996;SDS011;34318;45.818;15.964;2023-09-18T05:17:42;5.13;;;3.97;;
43996;SDS011;34318;45.818;15.964;2023-09-18T05:20:10;8.15;;;5.40;;
43996;SDS011;34318;45.818;15.964;2023-09-18T05:22:39;6.43;;;4.95;;
43996;SDS011;34318;45.818;15.964;2023-09-18T05:25:11;4.78;;;4.22;;
43996;SDS011;34318;45.818;15.964;2023-09-18T05:27:38;5.55;;;4.28;;
43996;SDS011;34318;45.818;15.964;2023-09-18T05:30:12;8.00;;;4.07;;
43996;SDS011;34318;45.818;15.964;2023-09-18T05:32:41;5.65;;;4.18;;
43996;SDS011;34318;45.818;15.964;2023-09-18T05:35:09;4.55;;;4.05;;
43996;SDS011;34318;45.818;15.964;2023-09-18T05:37:39;5.22;;;4.68;;
43996;SDS011;34318;45.818;15.964;2023-09-18T05:40:07;4.78;;;4.38;;
43996;SDS011;34318;45.818;15.964;2023-09-18T05:42:38;4.40;;;4.00;;
43996;SDS011;34318;45.818;15.964;2023-09-18T05:45:06;4.72;;;4.10;;
43996;SDS011;34318;45.818;15.964;2023-09-18T05:47:33;4.60;;;4.18;;
43996;SDS011;34318;45.818;15.964;2023-09-18T05:50:02;5.00;;;4.32;;
43996;SDS011;34318;45.818;15.964;2023-09-18T05:52:33;7.10;;;4.88;;
43996;SDS011;34318;45.818;15.964;2023-09-18T05:55:01;5.18;;;4.03;;
43996;SDS011;34318;45.818;15.964;2023-09-18T05:57:31;4.30;;;3.90;;
43996;SDS011;34318;45.818;15.964;2023-09-18T05:59:58;5.32;;;4.63;;
43996;SDS011;34318;45.818;15.964;2023-09-18T06:02:25;5.22;;;4.55;;
43996;SDS011;34318;45.818;15.964;2023-09-18T06:04:56;6.25;;;4.82;;
43996;SDS011;34318;45.818;15.964;2023-09-18T06:07:24;5.00;;;4.60;;
43996;SDS011;34318;45.818;15.964;2023-09-18T06:09:52;5.50;;;4.70;;
43996;SDS011;34318;45.818;15.964;2023-09-18T06:12:19;5.90;;;4.55;;
43996;SDS011;34318;45.818;15.964;2023-09-18T06:14:47;5.80;;;4.05;;
43996;SDS011;34318;45.818;15.964;2023-09-18T06:17:14;5.88;;;4.57;;
43996;SDS011;34318;45.818;15.964;2023-09-18T06:19:42;11.35;;;6.80;;
43996;SDS011;34318;45.818;15.964;2023-09-18T06:22:10;10.65;;;9.70;;
43996;SDS011;34318;45.818;15.964;2023-09-18T06:24:37;10.77;;;9.88;;
43996;SDS011;34318;45.818;15.964;2023-09-18T06:27:04;9.68;;;8.88;;
43996;SDS011;34318;45.818;15.964;2023-09-18T06:29:32;9.85;;;8.93;;
43996;SDS011;34318;45.818;15.964;2023-09-18T06:31:59;9.10;;;7.97;;
43996;SDS011;34318;45.818;15.964;2023-09-18T06:34:27;9.48;;;8.50;;
43996;SDS011;34318;45.818;15.964;2023-09-18T06:36:54;9.05;;;8.15;;
43996;SDS011;34318;45.818;15.964;2023-09-18T06:39:22;7.90;;;6.90;;
43996;SDS011;34318;45.818;15.964;2023-09-18T06:41:50;8.68;;;6.18;;
43996;SDS011;34318;45.818;15.964;2023-09-18T06:44:17;7.60;;;6.15;;
43996;SDS011;34318;45.818;15.964;2023-09-18T06:46:44;9.25;;;6.75;;
43996;SDS011;34318;45.818;15.964;2023-09-18T06:49:12;7.88;;;5.72;;
43996;SDS011;34318;45.818;15.964;2023-09-18T06:51:39;9.68;;;6.57;;
43996;SDS011;34318;45.818;15.964;2023-09-18T06:54:09;8.15;;;6.65;;
43996;SDS011;34318;45.818;15.964;2023-09-18T06:56:36;7.80;;;7.10;;
43996;SDS011;34318;45.818;15.964;2023-09-18T06:59:03;8.18;;;7.45;;
43996;SDS011;34318;45.818;15.964;2023-09-18T07:01:31;9.48;;;8.05;;
43996;SDS011;34318;45.818;15.964;2023-09-18T07:03:59;9.00;;;8.02;;
43996;SDS011;34318;45.818;15.964;2023-09-18T07:06:26;10.77;;;7.60;;
43996;SDS011;34318;45.818;15.964;2023-09-18T07:08:54;9.85;;;8.55;;
43996;SDS011;34318;45.818;15.964;2023-09-18T07:11:21;8.05;;;7.25;;
43996;SDS011;34318;45.818;15.964;2023-09-18T07:13:51;8.02;;;7.22;;
43996;SDS011;34318;45.818;15.964;2023-09-18T07:16:18;9.30;;;7.88;;
43996;SDS011;34318;45.818;15.964;2023-09-18T07:18:46;7.97;;;6.95;;
43996;SDS011;34318;45.818;15.964;2023-09-18T07:21:13;7.13;;;6.43;;
43996;SDS011;34318;45.818;15.964;2023-09-18T07:23:40;6.80;;;6.13;;
43996;SDS011;34318;45.818;15.964;2023-09-18T07:26:08;7.30;;;6.60;;
43996;SDS011;34318;45.818;15.964;2023-09-18T07:28:35;9.85;;;6.45;;
43996;SDS011;34318;45.818;15.964;2023-09-18T07:31:05;9.85;;;7.00;;
43996;SDS011;34318;45.818;15.964;2023-09-18T07:33:33;7.13;;;6.15;;
43996;SDS011;34318;45.818;15.964;2023-09-18T07:36:00;10.32;;;6.63;;
43996;SDS011;34318;45.818;15.964;2023-09-18T07:38:28;7.90;;;6.88;;
43996;SDS011;34318;45.818;15.964;2023-09-18T07:40:57;7.55;;;6.25;;
43996;SDS011;34318;45.818;15.964;2023-09-18T07:43:24;11.40;;;6.97;;
43996;SDS011;34318;45.818;15.964;2023-09-18T07:45:52;7.97;;;6.40;;
43996;SDS011;34318;45.818;15.964;2023-09-18T07:48:24;7.00;;;6.10;;
43996;SDS011;34318;45.818;15.964;2023-09-18T07:50:51;7.22;;;6.28;;
43996;SDS011;34318;45.818;15.964;2023-09-18T07:53:18;10.98;;;6.90;;
43996;SDS011;34318;45.818;15.964;2023-09-18T07:55:47;7.68;;;6.22;;
43996;SDS011;34318;45.818;15.964;2023-09-18T07:58:14;9.27;;;5.95;;
43996;SDS011;34318;45.818;15.964;2023-09-18T08:00:42;6.20;;;5.60;;
43996;SDS011;34318;45.818;15.964;2023-09-18T08:03:09;6.07;;;5.47;;
43996;SDS011;34318;45.818;15.964;2023-09-18T08:05:37;6.07;;;5.28;;
43996;SDS011;34318;45.818;15.964;2023-09-18T08:08:04;8.52;;;5.85;;
43996;SDS011;34318;45.818;15.964;2023-09-18T08:10:32;5.70;;;5.18;;
43996;SDS011;34318;45.818;15.964;2023-09-18T08:13:03;5.90;;;5.18;;
43996;SDS011;34318;45.818;15.964;2023-09-18T08:15:31;5.85;;;5.35;;
43996;SDS011;34318;45.818;15.964;2023-09-18T08:17:58;5.13;;;4.63;;
43996;SDS011;34318;45.818;15.964;2023-09-18T08:20:26;6.78;;;6.18;;
43996;SDS011;34318;45.818;15.964;2023-09-18T08:22:55;6.30;;;5.60;;
43996;SDS011;34318;45.818;15.964;2023-09-18T08:25:23;6.53;;;5.60;;
43996;SDS011;34318;45.818;15.964;2023-09-18T08:27:51;5.85;;;5.25;;
43996;SDS011;34318;45.818;15.964;2023-09-18T08:30:18;5.80;;;5.30;;
43996;SDS011;34318;45.818;15.964;2023-09-18T08:32:47;6.10;;;5.50;;
43996;SDS011;34318;45.818;15.964;2023-09-18T08:35:14;5.85;;;5.35;;
43996;SDS011;34318;45.818;15.964;2023-09-18T08:37:42;5.75;;;5.25;;
43996;SDS011;34318;45.818;15.964;2023-09-18T08:40:10;6.10;;;5.00;;
43996;SDS011;34318;45.818;15.964;2023-09-18T08:42:38;7.35;;;5.57;;
43996;SDS011;34318;45.818;15.964;2023-09-18T08:45:08;7.63;;;6.18;;
43996;SDS011;34318;45.818;15.964;2023-09-18T08:47:37;9.88;;;5.60;;
43996;SDS011;34318;45.818;15.964;2023-09-18T08:50:04;7.00;;;6.30;;
43996;SDS011;34318;45.818;15.964;2023-09-18T08:52:33;6.63;;;6.03;;
43996;SDS011;34318;45.818;15.964;2023-09-18T08:55:00;7.07;;;5.78;;
43996;SDS011;34318;45.818;15.964;2023-09-18T08:57:28;7.90;;;6.03;;
43996;SDS011;34318;45.818;15.964;2023-09-18T08:59:56;7.35;;;6.60;;
43996;SDS011;34318;45.818;15.964;2023-09-18T09:02:25;9.73;;;7.07;;
43996;SDS011;34318;45.818;15.964;2023-09-18T09:04:52;8.68;;;6.05;;
43996;SDS011;34318;45.818;15.964;2023-09-18T09:07:20;9.13;;;7.45;;
43996;SDS011;34318;45.818;15.964;2023-09-18T09:09:47;8.02;;;7.32;;
43996;SDS011;34318;45.818;15.964;2023-09-18T09:12:14;11.45;;;10.15;;
43996;SDS011;34318;45.818;15.964;2023-09-18T09:14:55;11.18;;;10.18;;
43996;SDS011;34318;45.818;15.964;2023-09-18T09:17:28;10.73;;;9.65;;
43996;SDS011;34318;45.818;15.964;2023-09-18T09:20:07;10.77;;;9.68;;
43996;SDS011;34318;45.818;15.964;2023-09-18T09:22:37;10.23;;;9.30;;
43996;SDS011;34318;45.818;15.964;2023-09-18T09:25:22;11.38;;;9.48;;
43996;SDS011;34318;45.818;15.964;2023-09-18T09:27:53;10.77;;;9.73;;
43996;SDS011;34318;45.818;15.964;2023-09-18T09:30:21;10.15;;;9.13;;
43996;SDS011;34318;45.818;15.964;2023-09-18T09:32:49;11.13;;;9.85;;
43996;SDS011;34318;45.818;15.964;2023-09-18T09:35:21;10.00;;;8.77;;
43996;SDS011;34318;45.818;15.964;2023-09-18T09:37:49;10.18;;;8.55;;
43996;SDS011;34318;45.818;15.964;2023-09-18T09:40:22;10.52;;;9.38;;
43996;SDS011;34318;45.818;15.964;2023-09-18T09:42:56;10.25;;;9.07;;
43996;SDS011;34318;45.818;15.964;2023-09-18T09:45:30;10.63;;;9.27;;
43996;SDS011;34318;45.818;15.964;2023-09-18T09:48:05;9.23;;;8.27;;
43996;SDS011;34318;45.818;15.964;2023-09-18T09:50:33;9.23;;;8.27;;
43996;SDS011;34318;45.818;15.964;2023-09-18T09:53:01;8.13;;;7.38;;
43996;SDS011;34318;45.818;15.964;2023-09-18T09:55:29;9.73;;;7.63;;
43996;SDS011;34318;45.818;15.964;2023-09-18T09:57:58;8.73;;;7.93;;
43996;SDS011;34318;45.818;15.964;2023-09-18T10:00:28;9.43;;;8.18;;
43996;SDS011;34318;45.818;15.964;2023-09-18T10:02:57;10.63;;;9.52;;
43996;SDS011;34318;45.818;15.964;2023-09-18T10:05:30;9.90;;;8.93;;
43996;SDS011;34318;45.818;15.964;2023-09-18T10:08:01;13.20;;;9.18;;
43996;SDS011;34318;45.818;15.964;2023-09-18T10:10:30;9.18;;;8.38;;
43996;SDS011;34318;45.818;15.964;2023-09-18T10:13:08;8.50;;;7.60;;
43996;SDS011;34318;45.818;15.964;2023-09-18T10:15:36;8.32;;;7.53;;
43996;SDS011;34318;45.818;15.964;2023-09-18T10:18:05;9.25;;;7.55;;
43996;SDS011;34318;45.818;15.964;2023-09-18T10:20:37;9.73;;;8.77;;
43996;SDS011;34318;45.818;15.964;2023-09-18T10:23:12;11.20;;;10.23;;
43996;SDS011;34318;45.818;15.964;2023-09-18T10:25:46;9.30;;;8.35;;
43996;SDS011;34318;45.818;15.964;2023-09-18T10:28:17;9.10;;;8.30;;
43996;SDS011;34318;45.818;15.964;2023-09-18T10:30:44;9.40;;;8.48;;
43996;SDS011;34318;45.818;15.964;2023-09-18T10:33:12;9.38;;;7.95;;
43996;SDS011;34318;45.818;15.964;2023-09-18T10:35:40;9.85;;;8.75;;
43996;SDS011;34318;45.818;15.964;2023-09-18T10:38:08;10.32;;;8.05;;
43996;SDS011;34318;45.818;15.964;2023-09-18T10:40:36;8.90;;;7.72;;
43996;SDS011;34318;45.818;15.964;2023-09-18T10:43:04;9.25;;;8.25;;
43996;SDS011;34318;45.818;15.964;2023-09-18T10:45:35;7.82;;;7.03;;
43996;SDS011;34318;45.818;15.964;2023-09-18T10:48:03;7.82;;;7.13;;
43996;SDS011;34318;45.818;15.964;2023-09-18T10:50:31;8.35;;;7.65;;
43996;SDS011;34318;45.818;15.964;2023-09-18T10:53:00;10.45;;;9.35;;
43996;SDS011;34318;45.818;15.964;2023-09-18T10:55:27;10.68;;;9.45;;
43996;SDS011;34318;45.818;15.964;2023-09-18T10:57:55;8.80;;;8.10;;
43996;SDS011;34318;45.818;15.964;2023-09-18T11:00:27;9.07;;;7.57;;
43996;SDS011;34318;45.818;15.964;2023-09-18T11:03:11;8.57;;;7.03;;
43996;SDS011;34318;45.818;15.964;2023-09-18T11:05:39;8.93;;;7.40;;
43996;SDS011;34318;45.818;15.964;2023-09-18T11:13:41;8.18;;;7.25;;
43996;SDS011;34318;45.818;15.964;2023-09-18T11:18:42;8.63;;;7.82;;
43996;SDS011;34318;45.818;15.964;2023-09-18T11:21:10;11.35;;;7.38;;
43996;SDS011;34318;45.818;15.964;2023-09-18T11:23:38;9.05;;;7.30;;
43996;SDS011;34318;45.818;15.964;2023-09-18T11:26:11;6.93;;;6.32;;
43996;SDS011;34318;45.818;15.964;2023-09-18T11:28:42;8.68;;;7.82;;
43996;SDS011;34318;45.818;15.964;2023-09-18T11:31:10;10.88;;;7.65;;
43996;SDS011;34318;45.818;15.964;2023-09-18T11:33:38;9.95;;;6.95;;
43996;SDS011;34318;45.818;15.964;2023-09-18T11:36:07;8.48;;;6.68;;
43996;SDS011;34318;45.818;15.964;2023-09-18T11:38:53;10.27;;;7.43;;
43996;SDS011;34318;45.818;15.964;2023-09-18T11:41:26;9.82;;;7.88;;
43996;SDS011;34318;45.818;15.964;2023-09-18T11:44:39;10.25;;;7.18;;
43996;SDS011;34318;45.818;15.964;2023-09-18T11:46:49;10.40;;;7.20;;
43996;SDS011;34318;45.818;15.964;2023-09-18T11:49:21;11.73;;;7.13;;
43996;SDS011;34318;45.818;15.964;2023-09-18T11:51:50;11.57;;;7.10;;
43996;SDS011;34318;45.818;15.964;2023-09-18T11:54:18;12.50;;;6.72;;
43996;SDS011;34318;45.818;15.964;2023-09-18T11:56:45;9.50;;;6.50;;
43996;SDS011;34318;45.818;15.964;2023-09-18T11:59:12;6.35;;;5.75;;
43996;SDS011;34318;45.818;15.964;2023-09-18T12:01:40;7.88;;;6.50;;
43996;SDS011;34318;45.818;15.964;2023-09-18T12:04:07;7.60;;;6.30;;
43996;SDS011;34318;45.818;15.964;2023-09-18T12:06:35;6.85;;;6.15;;
43996;SDS011;34318;45.818;15.964;2023-09-18T12:09:03;8.68;;;6.82;;
43996;SDS011;34318;45.818;15.964;2023-09-18T12:11:30;8.80;;;6.95;;
43996;SDS011;34318;45.818;15.964;2023-09-18T12:13:58;6.93;;;6.28;;
43996;SDS011;34318;45.818;15.964;2023-09-18T12:16:25;6.22;;;5.63;;
43996;SDS011;34318;45.818;15.964;2023-09-18T12:18:53;7.60;;;6.80;;
43996;SDS011;34318;45.818;15.964;2023-09-18T12:21:21;6.72;;;6.00;;
43996;SDS011;34318;45.818;15.964;2023-09-18T12:23:48;7.18;;;6.28;;
43996;SDS011;34318;45.818;15.964;2023-09-18T12:26:16;9.27;;;6.55;;
43996;SDS011;34318;45.818;15.964;2023-09-18T12:28:46;6.20;;;5.60;;
43996;SDS011;34318;45.818;15.964;2023-09-18T12:31:14;12.85;;;10.75;;
43996;SDS011;34318;45.818;15.964;2023-09-18T12:33:42;10.80;;;9.90;;
43996;SDS011;34318;45.818;15.964;2023-09-18T12:36:18;10.43;;;9.35;;
43996;SDS011;34318;45.818;15.964;2023-09-18T12:38:59;10.85;;;9.25;;
43996;SDS011;34318;45.818;15.964;2023-09-18T12:41:27;10.23;;;8.88;;
43996;SDS011;34318;45.818;15.964;2023-09-18T12:43:57;9.15;;;8.20;;
43996;SDS011;34318;45.818;15.964;2023-09-18T12:46:24;9.60;;;8.60;;
43996;SDS011;34318;45.818;15.964;2023-09-18T12:48:52;8.23;;;7.47;;
43996;SDS011;34318;45.818;15.964;2023-09-18T12:51:27;11.20;;;9.55;;
43996;SDS011;34318;45.818;15.964;2023-09-18T12:56:22;9.65;;;8.45;;
43996;SDS011;34318;45.818;15.964;2023-09-18T12:58:49;11.00;;;9.40;;
43996;SDS011;34318;45.818;15.964;2023-09-18T13:01:36;7.60;;;6.90;;
43996;SDS011;34318;45.818;15.964;2023-09-18T13:04:04;13.90;;;8.77;;
43996;SDS011;34318;45.818;15.964;2023-09-18T13:06:32;9.50;;;8.02;;
43996;SDS011;34318;45.818;15.964;2023-09-18T13:09:18;9.13;;;7.45;;
43996;SDS011;34318;45.818;15.964;2023-09-18T13:11:53;11.90;;;7.20;;
43996;SDS011;34318;45.818;15.964;2023-09-18T13:14:20;10.10;;;7.22;;
43996;SDS011;34318;45.818;15.964;2023-09-18T13:16:48;12.43;;;7.97;;
43996;SDS011;34318;45.818;15.964;2023-09-18T13:19:15;11.75;;;7.25;;
43996;SDS011;34318;45.818;15.964;2023-09-18T13:21:49;6.43;;;5.82;;
43996;SDS011;34318;45.818;15.964;2023-09-18T13:24:25;7.80;;;6.32;;
43996;SDS011;34318;45.818;15.964;2023-09-18T13:26:53;12.75;;;7.53;;
43996;SDS011;34318;45.818;15.964;2023-09-18T13:29:21;9.65;;;7.28;;
43996;SDS011;34318;45.818;15.964;2023-09-18T13:31:48;12.85;;;6.88;;
43996;SDS011;34318;45.818;15.964;2023-09-18T13:34:16;10.07;;;6.90;;
43996;SDS011;34318;45.818;15.964;2023-09-18T13:36:44;9.98;;;6.80;;
43996;SDS011;34318;45.818;15.964;2023-09-18T13:39:12;7.18;;;5.95;;
43996;SDS011;34318;45.818;15.964;2023-09-18T13:41:43;7.68;;;6.07;;
43996;SDS011;34318;45.818;15.964;2023-09-18T13:44:10;6.85;;;6.10;;
43996;SDS011;34318;45.818;15.964;2023-09-18T13:46:39;10.32;;;5.57;;
43996;SDS011;34318;45.818;15.964;2023-09-18T13:49:07;9.95;;;6.85;;
43996;SDS011;34318;45.818;15.964;2023-09-18T13:51:34;8.25;;;6.38;;
43996;SDS011;34318;45.818;15.964;2023-09-18T13:54:02;8.18;;;6.25;;
43996;SDS011;34318;45.818;15.964;2023-09-18T13:56:30;6.68;;;6.07;;
43996;SDS011;34318;45.818;15.964;2023-09-18T13:58:57;8.25;;;6.63;;
43996;SDS011;34318;45.818;15.964;2023-09-18T14:01:25;5.70;;;5.10;;
43996;SDS011;34318;45.818;15.964;2023-09-18T14:03:53;6.43;;;5.82;;
43996;SDS011;34318;45.818;15.964;2023-09-18T14:06:21;7.40;;;5.88;;
43996;SDS011;34318;45.818;15.964;2023-09-18T14:08:49;6.28;;;5.38;;
43996;SDS011;34318;45.818;15.964;2023-09-18T14:11:16;6.28;;;5.28;;
43996;SDS011;34318;45.818;15.964;2023-09-18T14:13:44;6.68;;;5.68;;
43996;SDS011;34318;45.818;15.964;2023-09-18T14:16:13;7.10;;;5.78;;
43996;SDS011;34318;45.818;15.964;2023-09-18T14:18:41;6.40;;;5.70;;
43996;SDS011;34318;45.818;15.964;2023-09-18T14:21:09;6.55;;;5.57;;
43996;SDS011;34318;45.818;15.964;2023-09-18T14:23:36;6.10;;;5.50;;
43996;SDS011;34318;45.818;15.964;2023-09-18T14:26:04;6.45;;;5.35;;
43996;SDS011;34318;45.818;15.964;2023-09-18T14:28:32;5.70;;;5.20;;
43996;SDS011;34318;45.818;15.964;2023-09-18T14:30:59;6.07;;;5.03;;
43996;SDS011;34318;45.818;15.964;2023-09-18T14:33:29;5.45;;;4.82;;
43996;SDS011;34318;45.818;15.964;2023-09-18T14:35:57;5.30;;;4.80;;
43996;SDS011;34318;45.818;15.964;2023-09-18T14:38:24;6.13;;;4.63;;
43996;SDS011;34318;45.818;15.964;2023-09-18T14:40:51;5.20;;;4.70;;
43996;SDS011;34318;45.818;15.964;2023-09-18T14:43:19;6.95;;;4.70;;
43996;SDS011;34318;45.818;15.964;2023-09-18T14:45:46;5.88;;;5.28;;
43996;SDS011;34318;45.818;15.964;2023-09-18T14:48:13;5.75;;;4.63;;
43996;SDS011;34318;45.818;15.964;2023-09-18T14:50:40;5.43;;;4.93;;
43996;SDS011;34318;45.818;15.964;2023-09-18T14:53:08;5.97;;;5.20;;
43996;SDS011;34318;45.818;15.964;2023-09-18T14:55:35;9.68;;;6.35;;